Time;durP1;ratioP1;P1;durP2;ratioP2;P2;SDS_P1;SDS_P2;PMS_P1;PMS_P2;Temp;Humidity;BMP_temperature;BMP_pressure;BME280_temperature;BME280_humidity;BME280_pressure;Samples;Min_cycle;Max_cycle;Signal;HPM_P1;HPM_P2
2022/04/25 00:01:53;;;;;;;9.65;2.92;;;9.30;99.50;;;;;;4986692;28;20050;-57
2022/04/25 00:04:20;;;;;;;9.95;3.30;;;9.20;99.90;;;;;;4987075;28;20100;-59
2022/04/25 00:06:47;;;;;;;12.93;3.80;;;9.20;99.90;;;;;;4987010;28;20054;-59
2022/04/25 00:09:13;;;;;;;9.75;3.20;;;9.10;99.90;;;;;;4979601;28;20038;-58
2022/04/25 00:11:40;;;;;;;7.57;2.67;;;9.10;99.90;;;;;;4988325;28;20100;-58
2022/04/25 00:14:07;;;;;;;9.30;3.20;;;9.10;99.90;;;;;;4988872;28;20133;-62
2022/04/25 00:16:34;;;;;;;11.00;3.17;;;9.10;99.90;;;;;;4989185;28;20096;-57
2022/04/25 00:19:01;;;;;;;9.52;3.33;;;9.10;99.90;;;;;;4988393;28;20086;-58
2022/04/25 00:21:27;;;;;;;8.60;3.33;;;9.00;99.90;;;;;;4970632;28;20055;-56
2022/04/25 00:23:54;;;;;;;13.15;3.35;;;9.00;99.90;;;;;;4982228;28;20126;-57
2022/04/25 00:26:21;;;;;;;7.18;3.20;;;9.10;99.90;;;;;;4988858;28;20564;-57
2022/04/25 00:28:47;;;;;;;8.25;2.85;;;9.10;99.90;;;;;;4982594;28;20085;-58
2022/04/25 00:31:14;;;;;;;8.77;2.67;;;9.10;99.90;;;;;;4983550;28;20050;-58
2022/04/25 00:33:41;;;;;;;5.28;2.90;;;9.10;99.90;;;;;;4988576;28;20117;-59
2022/04/25 00:36:08;;;;;;;14.57;4.80;;;9.10;99.90;;;;;;4988536;28;20100;-56
2022/04/25 00:38:35;;;;;;;10.93;3.55;;;9.10;99.90;;;;;;4988208;28;20121;-58
2022/04/25 00:41:02;;;;;;;11.52;3.50;;;9.10;99.90;;;;;;4988597;28;20105;-58
2022/04/25 00:43:28;;;;;;;13.82;3.53;;;9.00;99.90;;;;;;4988268;28;20525;-59
2022/04/25 00:45:55;;;;;;;11.70;4.00;;;9.00;99.90;;;;;;4988535;28;20088;-58
2022/04/25 00:48:22;;;;;;;10.32;3.22;;;9.00;99.90;;;;;;4982347;28;20047;-56
2022/04/25 00:50:49;;;;;;;15.38;4.13;;;9.00;99.90;;;;;;4988443;28;20126;-58
2022/04/25 00:53:15;;;;;;;11.05;3.28;;;8.90;99.90;;;;;;4988405;28;20155;-58
2022/04/25 00:55:42;;;;;;;16.15;3.92;;;8.90;99.90;;;;;;4984742;28;20117;-57
2022/04/25 00:58:11;;;;;;;11.73;3.22;;;8.80;99.90;;;;;;4968564;28;20130;-57
2022/04/25 01:00:38;;;;;;;7.82;3.72;;;8.80;99.90;;;;;;4973531;28;20490;-57
2022/04/25 01:03:05;;;;;;;8.07;3.65;;;8.80;99.90;;;;;;4986612;28;20130;-56
2022/04/25 01:05:32;;;;;;;10.52;3.58;;;8.80;99.90;;;;;;4987476;28;20050;-57
2022/04/25 01:08:01;;;;;;;8.00;3.25;;;8.80;99.90;;;;;;4984442;28;20078;-57
2022/04/25 01:10:29;;;;;;;7.75;2.80;;;8.70;99.90;;;;;;4981735;28;20046;-56
2022/04/25 01:12:55;;;;;;;10.27;3.58;;;8.80;99.90;;;;;;4988566;28;20050;-54
2022/04/25 01:15:22;;;;;;;11.38;3.83;;;8.70;99.90;;;;;;4988172;28;20133;-56
2022/04/25 01:17:49;;;;;;;14.32;4.22;;;8.70;99.90;;;;;;4987647;28;20129;-55
2022/04/25 01:20:16;;;;;;;17.45;4.18;;;8.70;99.90;;;;;;4984471;28;20133;-56
2022/04/25 01:28:38;;;;;;;11.05;3.75;;;8.60;99.90;;;;;;4987513;28;20047;-57
2022/04/25 01:31:05;;;;;;;14.68;5.97;;;8.50;99.90;;;;;;4987996;28;20050;-58
2022/04/25 01:33:32;;;;;;;11.32;4.25;;;8.50;99.90;;;;;;4988134;28;20125;-55
2022/04/25 01:35:58;;;;;;;8.30;3.60;;;8.40;99.90;;;;;;4641594;28;10000438;-57
2022/04/25 01:38:25;;;;;;;13.52;4.03;;;8.40;99.90;;;;;;4985208;28;20085;-58
2022/04/25 01:40:52;;;;;;;16.15;3.55;;;8.30;99.90;;;;;;4986860;28;21269;-58
2022/04/25 01:43:19;;;;;;;15.82;4.80;;;8.40;99.90;;;;;;4986739;28;20089;-54
2022/04/25 01:45:45;;;;;;;11.40;3.90;;;8.40;99.90;;;;;;4987815;28;20132;-53
2022/04/25 01:48:12;;;;;;;9.70;3.65;;;8.30;99.90;;;;;;4981450;28;20047;-53
2022/04/25 01:50:39;;;;;;;12.13;4.00;;;8.40;99.90;;;;;;4972001;28;20133;-55
2022/04/25 01:53:05;;;;;;;10.20;3.60;;;8.30;99.90;;;;;;4987791;28;20129;-59
2022/04/25 01:55:32;;;;;;;8.85;3.53;;;8.30;99.90;;;;;;4987914;28;20086;-57
2022/04/25 01:57:59;;;;;;;8.38;3.08;;;8.30;99.90;;;;;;4987533;28;20148;-58
2022/04/25 02:00:26;;;;;;;14.02;5.35;;;8.20;99.90;;;;;;4990253;28;20141;-59
2022/04/25 02:02:52;;;;;;;16.13;4.53;;;8.20;99.90;;;;;;4990675;28;20494;-57
2022/04/25 02:05:19;;;;;;;8.20;3.47;;;8.30;99.90;;;;;;4990981;28;20050;-56
2022/04/25 02:07:46;;;;;;;9.27;3.30;;;8.30;99.90;;;;;;4989972;28;20082;-54
2022/04/25 02:10:13;;;;;;;5.80;3.63;;;8.20;99.90;;;;;;4971426;28;20058;-52
2022/04/25 02:12:42;;;;;;;19.95;4.15;;;8.20;99.90;;;;;;4985568;28;20081;-54
2022/04/25 02:15:12;;;;;;;10.23;3.40;;;8.20;99.90;;;;;;4990723;28;20129;-53
2022/04/25 02:17:41;;;;;;;9.43;3.03;;;8.20;99.90;;;;;;4987210;28;20065;-54
2022/04/25 02:20:09;;;;;;;10.43;5.18;;;8.10;99.90;;;;;;4986866;28;20105;-57
2022/04/25 02:22:36;;;;;;;15.70;4.40;;;8.10;99.90;;;;;;4990817;28;20078;-58
2022/04/25 02:25:03;;;;;;;13.93;5.53;;;8.10;99.90;;;;;;4991153;28;20503;-57
2022/04/25 02:27:29;;;;;;;13.52;3.95;;;8.00;99.90;;;;;;4990433;28;20129;-56
2022/04/25 02:29:58;;;;;;;10.27;4.38;;;8.00;99.90;;;;;;4979078;28;20470;-57
2022/04/25 02:32:28;;;;;;;13.27;4.15;;;8.00;99.90;;;;;;4978112;28;20050;-57
2022/04/25 02:34:55;;;;;;;15.20;5.00;;;8.10;99.90;;;;;;4990970;28;20569;-57
2022/04/25 02:37:22;;;;;;;11.85;3.75;;;8.00;99.90;;;;;;4989075;28;20046;-57
2022/04/25 02:39:49;;;;;;;11.35;4.40;;;8.10;99.90;;;;;;4980206;28;20061;-58
2022/04/25 02:42:16;;;;;;;13.40;4.25;;;8.10;99.90;;;;;;4990485;28;20089;-56
2022/04/25 02:44:43;;;;;;;17.23;4.07;;;8.10;99.90;;;;;;4990912;28;20128;-55
2022/04/25 02:47:13;;;;;;;11.98;3.92;;;8.10;99.90;;;;;;4990609;28;20051;-58
2022/04/25 02:49:39;;;;;;;16.50;3.90;;;8.10;99.90;;;;;;4990415;28;20454;-59
2022/04/25 02:52:06;;;;;;;15.77;3.80;;;8.10;99.90;;;;;;4990799;28;20082;-57
2022/04/25 02:54:33;;;;;;;17.20;4.47;;;8.10;99.90;;;;;;4990290;28;20509;-58
2022/04/25 02:57:01;;;;;;;9.27;3.53;;;8.10;99.90;;;;;;4990652;28;20124;-58
2022/04/25 02:59:27;;;;;;;15.40;4.90;;;8.10;99.90;;;;;;4989247;28;20068;-61
2022/04/25 03:01:54;;;;;;;12.15;4.13;;;8.10;99.90;;;;;;4989890;28;20082;-57
2022/04/25 03:04:21;;;;;;;10.35;4.15;;;8.10;99.90;;;;;;4989688;28;20081;-58
2022/04/25 03:06:48;;;;;;;9.75;3.50;;;8.20;99.90;;;;;;4989519;28;20481;-58
2022/04/25 03:09:15;;;;;;;13.18;3.97;;;8.30;99.90;;;;;;4983868;28;20577;-58
2022/04/25 03:11:41;;;;;;;11.55;3.38;;;8.30;99.90;;;;;;4985671;28;20155;-57
2022/04/25 03:14:08;;;;;;;10.98;4.55;;;8.40;99.90;;;;;;4989691;28;20125;-58
2022/04/25 03:16:35;;;;;;;9.98;4.13;;;8.40;99.90;;;;;;4990265;28;20116;-56
2022/04/25 03:19:02;;;;;;;18.95;4.80;;;8.40;99.90;;;;;;4983645;28;20141;-58
2022/04/25 03:21:29;;;;;;;11.52;3.30;;;8.50;99.90;;;;;;4990499;28;20097;-57
2022/04/25 03:23:56;;;;;;;13.35;4.05;;;8.50;99.90;;;;;;4990129;28;20093;-57
2022/04/25 03:26:23;;;;;;;8.80;3.63;;;8.50;99.90;;;;;;4990291;28;20445;-57
2022/04/25 03:28:50;;;;;;;9.75;3.30;;;8.40;99.90;;;;;;4989314;28;20713;-58
2022/04/25 03:31:17;;;;;;;11.10;4.55;;;8.40;99.90;;;;;;4990028;28;20150;-57
2022/04/25 03:33:43;;;;;;;10.68;4.32;;;8.40;99.90;;;;;;4989841;28;20091;-56
2022/04/25 03:36:10;;;;;;;12.02;3.83;;;8.50;99.90;;;;;;4990040;28;20070;-58
2022/04/25 03:38:37;;;;;;;10.70;4.68;;;8.30;99.90;;;;;;4980313;28;20054;-57
2022/04/25 03:41:03;;;;;;;16.23;3.95;;;8.30;99.90;;;;;;4988408;28;20137;-57
2022/04/25 03:43:32;;;;;;;20.42;4.72;;;8.40;99.90;;;;;;4989849;28;20137;-58
2022/04/25 03:46:00;;;;;;;13.45;4.50;;;8.40;99.90;;;;;;4989652;28;20053;-57
2022/04/25 03:48:26;;;;;;;10.88;3.80;;;8.40;99.90;;;;;;4970901;28;20137;-56
2022/04/25 03:50:53;;;;;;;12.02;4.63;;;8.40;99.90;;;;;;4984330;28;20046;-58
2022/04/25 03:53:20;;;;;;;11.75;3.75;;;8.40;99.90;;;;;;4989687;28;20592;-57
2022/04/25 03:58:32;;;;;;;24.77;7.70;;;8.20;99.90;;;;;;4980534;28;20078;-57
2022/04/25 04:00:59;;;;;;;9.95;4.60;;;8.20;99.90;;;;;;4982919;28;20085;-58
2022/04/25 04:03:25;;;;;;;7.10;3.55;;;8.30;99.90;;;;;;4987170;28;20565;-58
2022/04/25 04:05:54;;;;;;;13.43;3.70;;;8.30;99.90;;;;;;4989116;28;20137;-56
2022/04/25 04:08:21;;;;;;;13.18;3.28;;;8.30;99.90;;;;;;4982283;28;20055;-57
2022/04/25 04:10:47;;;;;;;12.18;5.20;;;8.20;99.90;;;;;;4977351;28;20085;-57
2022/04/25 04:13:15;;;;;;;12.32;3.72;;;8.20;99.90;;;;;;4988931;28;20089;-58
2022/04/25 04:15:42;;;;;;;13.40;4.22;;;8.30;99.90;;;;;;4987336;28;20061;-59
2022/04/25 04:18:09;;;;;;;18.02;4.07;;;8.20;99.90;;;;;;4988161;28;20736;-57
2022/04/25 04:20:36;;;;;;;9.80;4.82;;;8.10;99.90;;;;;;4987901;28;20096;-58
2022/04/25 04:23:03;;;;;;;14.88;3.75;;;8.10;99.90;;;;;;4988737;28;20050;-57
2022/04/25 04:25:32;;;;;;;13.30;4.30;;;8.10;99.90;;;;;;4988960;28;20062;-57
2022/04/25 04:27:59;;;;;;;11.75;4.18;;;8.00;99.90;;;;;;4985227;28;20078;-57
2022/04/25 04:30:26;;;;;;;17.95;6.10;;;8.00;99.90;;;;;;4968648;28;20086;-59
2022/04/25 04:32:52;;;;;;;8.95;4.40;;;7.90;99.90;;;;;;4988483;28;20554;-58
2022/04/25 04:38:05;;;;;;;14.93;4.20;;;7.80;99.90;;;;;;4986601;28;20060;-58
2022/04/25 04:40:32;;;;;;;18.52;4.30;;;7.80;99.90;;;;;;4989099;28;20417;-57
2022/04/25 04:42:59;;;;;;;17.27;4.45;;;7.90;99.90;;;;;;4988720;28;20046;-58
2022/04/25 04:45:26;;;;;;;10.35;4.40;;;7.90;99.90;;;;;;4988869;28;20085;-57
2022/04/25 04:47:53;;;;;;;12.05;4.28;;;7.90;99.90;;;;;;4987953;28;20137;-56
2022/04/25 04:50:20;;;;;;;15.75;5.25;;;8.00;99.90;;;;;;4970748;28;20130;-58
2022/04/25 04:52:51;;;;;;;9.73;4.38;;;7.90;99.90;;;;;;4981308;28;20129;-58
2022/04/25 04:55:18;;;;;;;17.77;4.35;;;8.10;99.90;;;;;;4988634;28;20081;-56
2022/04/25 04:57:45;;;;;;;10.13;4.63;;;8.10;99.90;;;;;;4986953;28;20100;-57
2022/04/25 05:00:13;;;;;;;12.73;4.30;;;8.10;99.90;;;;;;4983645;28;20101;-57
2022/04/25 05:02:41;;;;;;;14.85;4.20;;;8.10;99.90;;;;;;4988325;28;20057;-59
2022/04/25 05:05:08;;;;;;;13.48;3.92;;;8.00;99.90;;;;;;4988617;28;20057;-57
2022/04/25 05:07:35;;;;;;;16.38;4.68;;;8.00;99.90;;;;;;4988407;28;20089;-57
2022/04/25 05:10:03;;;;;;;15.10;5.47;;;8.10;99.90;;;;;;4987884;28;20509;-56
2022/04/25 05:12:30;;;;;;;16.35;4.55;;;8.00;99.90;;;;;;4987784;28;20093;-58
2022/04/25 05:14:58;;;;;;;14.43;5.15;;;7.90;99.90;;;;;;4987769;28;20101;-56
2022/04/25 05:17:24;;;;;;;16.52;5.30;;;8.00;99.90;;;;;;4986891;28;20108;-57
2022/04/25 05:19:51;;;;;;;15.48;4.40;;;8.00;99.90;;;;;;4975712;28;20050;-57
2022/04/25 05:22:18;;;;;;;20.73;5.47;;;8.10;99.90;;;;;;4987901;28;20050;-58
2022/04/25 05:24:45;;;;;;;16.95;5.30;;;8.10;99.90;;;;;;4986598;28;20078;-58
2022/04/25 05:27:11;;;;;;;8.52;4.57;;;8.10;99.90;;;;;;4987907;28;20089;-57
2022/04/25 05:29:38;;;;;;;15.88;5.50;;;8.10;99.90;;;;;;4984706;28;20047;-56
2022/04/25 05:32:05;;;;;;;13.70;4.10;;;8.20;99.90;;;;;;4990254;28;20149;-58
2022/04/25 05:34:37;;;;;;;12.07;5.03;;;8.20;99.90;;;;;;4991700;28;20489;-56
2022/04/25 05:37:04;;;;;;;13.27;4.22;;;8.30;99.90;;;;;;4990663;28;20050;-57
2022/04/25 05:39:32;;;;;;;11.52;4.63;;;8.20;99.90;;;;;;4983480;28;20121;-58
2022/04/25 05:42:02;;;;;;;17.63;6.07;;;8.20;99.90;;;;;;4983511;28;20050;-57
2022/04/25 05:44:29;;;;;;;11.57;3.95;;;8.20;99.90;;;;;;4990096;28;20077;-56
2022/04/25 05:46:56;;;;;;;15.93;4.40;;;8.30;99.90;;;;;;4990515;28;20150;-55
2022/04/25 05:52:08;;;;;;;8.80;4.15;;;8.30;99.90;;;;;;4991925;28;20046;-56
2022/04/25 05:54:36;;;;;;;15.32;4.10;;;8.30;99.90;;;;;;4991008;28;20054;-56
2022/04/25 05:57:04;;;;;;;14.88;4.90;;;8.30;99.90;;;;;;4989900;28;20084;-58
2022/04/25 05:59:31;;;;;;;11.70;4.60;;;8.40;99.90;;;;;;4991212;28;20038;-60
2022/04/25 06:01:58;;;;;;;10.82;3.78;;;8.50;99.90;;;;;;4990390;28;20065;-57
2022/04/25 06:04:25;;;;;;;23.30;4.35;;;8.50;99.90;;;;;;4991102;28;20668;-58
2022/04/25 06:06:56;;;;;;;9.75;4.10;;;8.40;99.90;;;;;;4991187;28;20129;-57
2022/04/25 06:09:26;;;;;;;15.63;3.95;;;8.40;99.90;;;;;;4983234;28;20077;-59
2022/04/25 06:11:53;;;;;;;18.67;4.35;;;8.30;99.90;;;;;;4991663;28;20065;-56
2022/04/25 06:14:21;;;;;;;7.28;3.45;;;8.40;99.90;;;;;;4991679;28;20108;-58
2022/04/25 06:16:48;;;;;;;20.90;4.68;;;8.40;99.90;;;;;;4991705;28;20148;-58
2022/04/25 06:19:15;;;;;;;9.85;3.40;;;8.40;99.90;;;;;;4990648;28;20050;-58
2022/04/25 06:21:42;;;;;;;13.68;3.63;;;8.50;99.90;;;;;;4991215;28;20073;-58
2022/04/25 06:24:09;;;;;;;12.45;3.50;;;8.50;99.90;;;;;;5005704;28;20046;-59
2022/04/25 06:26:36;;;;;;;18.08;4.15;;;8.50;99.90;;;;;;4989587;28;20145;-57
2022/04/25 06:29:03;;;;;;;14.00;4.25;;;8.60;99.90;;;;;;4990268;28;20046;-59
2022/04/25 06:31:30;;;;;;;12.63;4.30;;;8.60;99.90;;;;;;4990946;28;20056;-60
2022/04/25 06:33:58;;;;;;;15.38;5.03;;;8.60;99.90;;;;;;4987574;28;20051;-60
2022/04/25 06:36:25;;;;;;;8.63;3.65;;;8.60;99.90;;;;;;4981977;28;20097;-59
2022/04/25 06:38:52;;;;;;;16.05;5.95;;;8.70;99.90;;;;;;4984508;28;20162;-58
2022/04/25 06:41:21;;;;;;;13.55;4.30;;;8.70;99.90;;;;;;4988775;28;20129;-57
2022/04/25 06:43:48;;;;;;;9.95;4.07;;;8.80;99.90;;;;;;4990260;28;20128;-58
2022/04/25 06:46:15;;;;;;;8.85;3.60;;;8.80;99.90;;;;;;4987728;28;20069;-59
2022/04/25 06:49:19;;;;;;;13.75;3.63;;;8.90;99.90;;;;;;4982384;28;20057;-58
2022/04/25 06:51:30;;;;;;;19.10;3.97;;;8.90;99.90;;;;;;4988861;28;20038;-57
2022/04/25 06:53:57;;;;;;;15.90;3.53;;;9.00;99.90;;;;;;4989158;28;20054;-58
2022/04/25 06:56:24;;;;;;;17.52;5.38;;;9.20;99.90;;;;;;4988013;28;20045;-57
2022/04/25 06:58:50;;;;;;;11.27;3.30;;;9.20;99.90;;;;;;4988265;28;20042;-58
2022/04/25 07:01:17;;;;;;;16.20;4.07;;;9.20;99.90;;;;;;4980269;28;20050;-62
2022/04/25 07:03:44;;;;;;;12.90;5.10;;;9.30;99.90;;;;;;4976934;28;20050;-59
2022/04/25 07:06:11;;;;;;;15.02;3.40;;;9.30;99.90;;;;;;4985485;28;20124;-59
2022/04/25 07:08:38;;;;;;;9.40;3.50;;;9.40;99.90;;;;;;4972496;28;20140;-58
2022/04/25 07:11:04;;;;;;;14.82;3.70;;;9.40;99.90;;;;;;4990257;28;20078;-60
2022/04/25 07:13:31;;;;;;;12.95;3.60;;;9.40;99.90;;;;;;4640475;28;10000314;-57
2022/04/25 07:16:01;;;;;;;15.00;3.60;;;9.50;99.90;;;;;;4987556;28;20050;-58
2022/04/25 07:18:29;;;;;;;22.08;3.45;;;9.50;99.90;;;;;;4987502;28;20125;-60
2022/04/25 07:20:56;;;;;;;19.25;3.38;;;9.50;99.90;;;;;;4988104;28;20094;-59
2022/04/25 07:28:52;;;;;;;15.20;4.18;;;9.60;99.90;;;;;;4986876;28;20069;-60
2022/04/25 07:31:20;;;;;;;14.35;4.38;;;9.60;99.90;;;;;;4987649;28;20137;-59
2022/04/25 07:33:46;;;;;;;14.93;3.38;;;9.60;99.90;;;;;;4986986;28;20054;-59
2022/04/25 07:36:14;;;;;;;10.77;3.35;;;9.70;99.90;;;;;;4978099;28;20047;-59
2022/04/25 07:38:45;;;;;;;12.02;3.72;;;9.70;99.90;;;;;;4965791;28;20050;-59
2022/04/25 07:41:13;;;;;;;7.97;2.55;;;9.70;99.90;;;;;;4968247;28;20051;-60
2022/04/25 07:43:43;;;;;;;15.23;2.90;;;9.70;99.90;;;;;;4970827;28;20050;-61
2022/04/25 07:46:10;;;;;;;8.70;2.17;;;9.80;99.90;;;;;;4971294;28;20055;-60
2022/04/25 07:48:36;;;;;;;11.20;2.97;;;9.70;99.90;;;;;;4977102;28;20054;-60
2022/04/25 07:51:03;;;;;;;9.10;2.80;;;9.80;99.90;;;;;;4989153;28;20082;-58
2022/04/25 07:53:30;;;;;;;11.15;3.40;;;9.80;99.90;;;;;;4985600;28;20468;-59
2022/04/25 07:55:58;;;;;;;16.85;3.22;;;9.90;99.90;;;;;;4980992;28;20578;-58
2022/04/25 07:58:25;;;;;;;8.73;2.67;;;9.90;99.90;;;;;;4986687;28;20545;-58
2022/04/25 08:00:52;;;;;;;12.52;2.90;;;10.00;99.90;;;;;;4987143;28;20085;-57
2022/04/25 08:03:25;;;;;;;15.40;3.20;;;10.00;99.90;;;;;;4987603;28;20049;-55
2022/04/25 08:05:52;;;;;;;11.95;3.05;;;10.20;99.90;;;;;;4987193;28;20351;-59
2022/04/25 08:08:19;;;;;;;9.15;2.90;;;10.20;99.90;;;;;;4988167;28;20065;-55
2022/04/25 08:10:45;;;;;;;7.45;3.35;;;10.30;99.90;;;;;;4987672;28;20042;-56
2022/04/25 08:19:02;;;;;;;8.40;2.33;;;10.10;99.90;;;;;;4984502;28;19922;-62
2022/04/25 08:21:29;;;;;;;11.48;3.08;;;10.10;99.90;;;;;;4986992;28;20226;-56
2022/04/25 08:23:56;;;;;;;8.65;2.58;;;10.20;99.90;;;;;;4979626;28;20199;-55
2022/04/25 08:26:23;;;;;;;9.35;2.90;;;10.30;99.90;;;;;;4978829;28;20054;-59
2022/04/25 08:28:51;;;;;;;8.57;3.28;;;10.30;99.90;;;;;;4988126;28;20085;-58
2022/04/25 08:31:33;;;;;;;12.37;2.80;;;10.40;99.90;;;;;;4985359;28;20042;-58
2022/04/25 08:34:02;;;;;;;11.40;3.05;;;10.40;99.90;;;;;;4987057;28;20089;-59
2022/04/25 08:36:30;;;;;;;8.60;2.95;;;10.50;99.90;;;;;;4987886;28;20061;-57
2022/04/25 08:38:56;;;;;;;9.27;2.88;;;10.60;99.90;;;;;;4988060;28;20466;-59
2022/04/25 08:41:27;;;;;;;9.70;3.00;;;10.60;99.90;;;;;;4987636;28;20632;-58
2022/04/25 08:43:54;;;;;;;6.63;2.95;;;10.60;99.90;;;;;;4984654;28;20050;-58
2022/04/25 08:46:21;;;;;;;7.22;3.25;;;10.60;99.90;;;;;;4986410;28;20073;-58
2022/04/25 08:48:49;;;;;;;6.85;2.55;;;10.60;99.90;;;;;;4986658;28;20060;-57
2022/04/25 08:51:20;;;;;;;12.75;3.15;;;10.60;99.90;;;;;;4987276;28;20509;-58
2022/04/25 08:53:47;;;;;;;9.60;3.20;;;10.60;99.90;;;;;;4983380;28;20050;-58
2022/04/25 08:56:13;;;;;;;9.00;2.83;;;10.60;99.90;;;;;;4986126;28;20090;-58
2022/04/25 08:58:40;;;;;;;8.00;2.70;;;10.70;99.90;;;;;;4988063;28;20689;-57
2022/04/25 09:01:10;;;;;;;9.82;2.78;;;10.60;99.90;;;;;;4986537;28;20046;-58
2022/04/25 09:03:37;;;;;;;12.02;3.33;;;10.60;99.90;;;;;;4985815;28;20589;-58
2022/04/25 09:06:06;;;;;;;9.10;3.40;;;10.60;99.90;;;;;;4984727;28;20081;-59
2022/04/25 09:08:33;;;;;;;9.55;3.08;;;10.70;99.90;;;;;;4987726;28;20057;-58
2022/04/25 09:12:09;;;;;;;14.80;3.85;;;10.90;99.90;;;;;;4986118;28;20054;-60
2022/04/25 09:13:46;;;;;;;13.10;3.30;;;10.90;99.90;;;;;;4982499;28;20101;-59
2022/04/25 09:16:15;;;;;;;9.43;3.38;;;11.10;99.90;;;;;;4987435;28;20054;-60
2022/04/25 09:18:43;;;;;;;10.63;3.80;;;11.20;99.90;;;;;;4987582;28;20069;-59
2022/04/25 09:21:13;;;;;;;14.15;3.10;;;11.30;99.90;;;;;;4987041;28;20544;-59
2022/04/25 09:23:41;;;;;;;8.65;2.83;;;11.40;99.90;;;;;;4978245;28;20189;-60
2022/04/25 09:26:09;;;;;;;8.77;2.75;;;11.50;99.90;;;;;;4974542;28;20058;-57
2022/04/25 09:29:05;;;;;;;9.43;3.05;;;11.50;99.90;;;;;;4983428;28;20120;-59
2022/04/25 09:31:32;;;;;;;8.75;3.00;;;11.70;99.90;;;;;;4971549;28;20050;-57
2022/04/25 09:34:13;;;;;;;16.30;3.38;;;11.80;99.90;;;;;;5002167;28;20086;-56
2022/04/25 09:36:47;;;;;;;12.07;3.50;;;11.90;99.90;;;;;;4986603;28;20078;-58
2022/04/25 09:39:30;;;;;;;9.20;2.67;;;12.00;99.90;;;;;;4986672;28;20050;-59
2022/04/25 09:41:59;;;;;;;5.78;3.20;;;12.20;99.90;;;;;;4986633;28;20054;-58
2022/04/25 09:44:30;;;;;;;9.40;2.72;;;12.30;99.90;;;;;;4973152;28;20130;-57
2022/04/25 09:46:57;;;;;;;12.95;3.80;;;12.20;99.90;;;;;;4973331;28;20038;-54
2022/04/25 09:49:24;;;;;;;9.23;3.25;;;12.20;99.80;;;;;;4986606;28;20085;-57
2022/04/25 09:52:00;;;;;;;10.52;3.20;;;12.50;99.70;;;;;;4987211;28;20090;-57
2022/04/25 09:54:27;;;;;;;8.63;3.35;;;12.70;99.10;;;;;;4978853;28;20105;-57
2022/04/25 09:56:54;;;;;;;12.07;3.95;;;12.70;99.10;;;;;;4986590;28;20231;-58
2022/04/25 09:59:21;;;;;;;10.10;3.22;;;12.60;99.40;;;;;;4988096;28;20076;-60
2022/04/25 10:02:04;;;;;;;8.65;2.75;;;12.70;99.40;;;;;;4988007;28;20096;-58
2022/04/25 10:04:33;;;;;;;12.32;3.03;;;12.90;97.60;;;;;;4979374;28;20065;-59
2022/04/25 10:07:00;;;;;;;7.68;2.85;;;12.90;99.10;;;;;;4970452;28;20562;-58
2022/04/25 10:09:31;;;;;;;11.52;3.17;;;12.80;98.80;;;;;;4987948;28;20137;-57
2022/04/25 10:12:00;;;;;;;8.75;3.00;;;12.80;98.90;;;;;;4986884;28;20133;-59
2022/04/25 10:14:27;;;;;;;9.77;3.28;;;12.80;98.90;;;;;;4976460;28;20068;-56
2022/04/25 10:16:56;;;;;;;7.15;3.03;;;12.90;98.70;;;;;;4988658;28;20121;-56
2022/04/25 10:19:23;;;;;;;8.68;2.70;;;12.90;98.70;;;;;;4991045;28;20105;-57
2022/04/25 10:21:54;;;;;;;9.40;3.92;;;13.00;98.80;;;;;;5006480;28;20133;-59
2022/04/25 10:24:20;;;;;;;9.00;3.20;;;13.00;98.40;;;;;;4989340;28;20379;-57
2022/04/25 10:26:47;;;;;;;13.80;3.33;;;13.10;98.60;;;;;;4991499;28;20074;-58
2022/04/25 10:29:21;;;;;;;13.75;3.25;;;13.10;98.70;;;;;;5005861;28;20579;-59
2022/04/25 10:31:48;;;;;;;11.77;3.25;;;13.10;98.20;;;;;;5006056;28;20109;-58
2022/04/25 10:34:16;;;;;;;5.70;2.97;;;13.10;98.20;;;;;;4990014;28;20097;-58
2022/04/25 10:36:44;;;;;;;9.88;3.00;;;13.20;98.20;;;;;;4991221;28;20532;-57
2022/04/25 10:39:24;;;;;;;7.15;3.13;;;13.10;97.60;;;;;;4990738;28;20133;-59
2022/04/25 10:44:42;;;;;;;12.75;4.05;;;13.20;97.90;;;;;;4988213;28;20493;-57
2022/04/25 10:47:24;;;;;;;8.25;3.33;;;13.30;98.00;;;;;;4990984;28;20493;-57
2022/04/25 10:49:55;;;;;;;9.13;3.38;;;13.40;97.80;;;;;;4990714;28;20108;-59
2022/04/25 10:52:54;;;;;;;9.20;3.28;;;13.50;97.50;;;;;;4990994;28;20050;-55
2022/04/25 10:55:21;;;;;;;6.00;2.70;;;13.50;96.60;;;;;;4987165;28;20497;-58
2022/04/25 10:58:03;;;;;;;10.10;3.83;;;13.50;97.70;;;;;;4990461;28;20062;-57
2022/04/25 11:00:36;;;;;;;11.18;3.75;;;13.60;96.20;;;;;;4990367;28;20489;-58
2022/04/25 11:03:13;;;;;;;15.02;3.78;;;13.60;97.10;;;;;;4988747;28;20182;-59
2022/04/25 11:05:42;;;;;;;9.82;3.78;;;13.80;97.30;;;;;;4987321;28;20456;-59
2022/04/25 11:08:20;;;;;;;10.15;3.28;;;13.80;97.00;;;;;;4990281;28;20506;-58
2022/04/25 11:11:00;;;;;;;10.00;3.35;;;13.70;96.10;;;;;;4990327;28;20054;-57
2022/04/25 11:13:31;;;;;;;12.18;3.60;;;13.70;96.70;;;;;;4971628;28;20085;-56
2022/04/25 11:16:21;;;;;;;8.57;4.60;;;13.80;96.10;;;;;;4986786;28;20109;-55
2022/04/25 11:19:16;;;;;;;10.38;4.00;;;13.70;95.00;;;;;;4970925;28;20443;-57
2022/04/25 11:21:46;;;;;;;11.68;3.38;;;13.80;95.70;;;;;;4989783;28;20129;-59
2022/04/25 11:24:26;;;;;;;13.35;2.88;;;13.90;96.40;;;;;;4988434;28;20133;-59
2022/04/25 11:26:53;;;;;;;11.82;3.33;;;14.00;94.80;;;;;;4987397;28;20078;-59
2022/04/25 11:29:20;;;;;;;10.80;3.13;;;14.00;95.60;;;;;;4989101;28;20584;-57
2022/04/25 11:31:46;;;;;;;9.25;3.40;;;13.80;95.40;;;;;;5005082;28;20130;-58
2022/04/25 11:34:14;;;;;;;7.95;2.75;;;13.70;95.50;;;;;;4979592;28;20477;-56
2022/04/25 11:36:44;;;;;;;11.73;3.40;;;13.80;95.60;;;;;;4986629;28;20050;-58
2022/04/25 11:42:01;;;;;;;11.20;3.05;;;13.70;94.90;;;;;;4989702;28;20050;-57
2022/04/25 11:44:33;;;;;;;7.68;2.38;;;13.60;96.40;;;;;;4989215;28;20486;-58
2022/04/25 11:47:00;;;;;;;9.68;2.75;;;13.70;96.10;;;;;;4989416;28;20050;-56
2022/04/25 11:49:27;;;;;;;12.07;3.85;;;13.80;96.00;;;;;;4970154;28;20498;-57
2022/04/25 11:52:00;;;;;;;10.73;3.10;;;13.90;95.50;;;;;;4984491;28;20418;-58
2022/04/25 11:54:30;;;;;;;11.35;3.30;;;13.90;95.50;;;;;;4987874;28;20130;-58
2022/04/25 11:57:01;;;;;;;4.28;2.85;;;14.00;95.20;;;;;;4989067;28;20099;-57
2022/04/25 11:59:28;;;;;;;6.97;2.65;;;13.90;95.20;;;;;;4989738;28;20081;-57
2022/04/25 12:01:55;;;;;;;5.40;2.35;;;13.80;96.00;;;;;;4989122;28;20054;-57
2022/04/25 12:04:34;;;;;;;8.18;2.70;;;13.70;96.30;;;;;;4988888;28;20054;-57
2022/04/25 12:07:08;;;;;;;12.48;3.13;;;13.80;95.80;;;;;;4988651;28;20553;-56
2022/04/25 12:15:34;;;;;;;6.38;3.00;;;13.70;95.80;;;;;;4988114;28;20626;-56
2022/04/25 12:18:14;;;;;;;8.07;2.92;;;13.70;96.10;;;;;;4989362;28;20058;-57
2022/04/25 12:20:42;;;;;;;6.45;3.35;;;13.60;94.80;;;;;;4969492;28;20100;-56
2022/04/25 12:23:10;;;;;;;4.18;2.70;;;13.50;96.10;;;;;;4974773;28;20093;-57
2022/04/25 12:25:41;;;;;;;9.45;3.70;;;13.60;96.00;;;;;;4987539;28;20054;-57
2022/04/25 12:28:15;;;;;;;7.63;3.22;;;13.70;95.80;;;;;;4987870;28;20163;-55
2022/04/25 12:30:45;;;;;;;5.95;3.42;;;13.90;96.00;;;;;;4987653;28;20134;-57
2022/04/25 12:33:13;;;;;;;8.40;2.67;;;14.20;94.90;;;;;;4984343;28;20505;-58
2022/04/25 12:35:40;;;;;;;5.72;2.80;;;14.50;94.80;;;;;;4987576;28;20054;-59
2022/04/25 12:38:07;;;;;;;14.55;3.58;;;14.90;94.10;;;;;;4987260;28;20238;-57
2022/04/25 12:40:56;;;;;;;14.85;2.30;;;15.00;93.10;;;;;;4987612;28;20070;-57
2022/04/25 12:43:42;;;;;;;5.30;2.17;;;15.10;90.60;;;;;;4967114;28;20113;-57
2022/04/25 12:46:09;;;;;;;7.15;2.33;;;15.10;87.70;;;;;;4987471;28;20141;-58
2022/04/25 12:49:04;;;;;;;5.53;2.63;;;15.20;90.20;;;;;;4987982;28;20057;-55
2022/04/25 12:51:31;;;;;;;4.85;2.67;;;15.40;84.50;;;;;;4969630;28;20471;-58
2022/04/25 12:53:58;;;;;;;5.57;2.88;;;15.40;91.20;;;;;;4982863;28;20141;-58
2022/04/25 12:56:26;;;;;;;7.30;2.72;;;15.40;90.80;;;;;;4986487;28;20105;-58
2022/04/25 12:58:53;;;;;;;9.63;2.42;;;15.40;91.60;;;;;;4988559;28;20038;-58
2022/04/25 13:01:35;;;;;;;12.23;2.88;;;15.30;89.40;;;;;;4988359;28;20054;-59
2022/04/25 13:04:11;;;;;;;4.95;2.40;;;15.20;87.30;;;;;;4988491;28;20061;-56
2022/04/25 13:06:38;;;;;;;5.20;2.63;;;15.30;88.70;;;;;;4968594;28;20470;-58
2022/04/25 13:09:05;;;;;;;6.32;2.33;;;15.50;91.10;;;;;;4979088;28;20616;-58
2022/04/25 13:11:51;;;;;;;5.50;2.55;;;15.70;89.30;;;;;;4986495;28;20042;-55
2022/04/25 13:14:17;;;;;;;12.68;3.05;;;15.70;89.90;;;;;;4979709;28;20081;-58
2022/04/25 13:16:44;;;;;;;4.65;3.08;;;15.50;91.80;;;;;;4988321;28;20572;-57
2022/04/25 13:19:11;;;;;;;11.18;2.83;;;15.20;93.10;;;;;;4988002;28;20050;-58
2022/04/25 13:21:41;;;;;;;8.90;2.70;;;14.70;93.90;;;;;;4987848;28;20047;-57
2022/04/25 13:24:07;;;;;;;11.90;3.58;;;14.40;96.20;;;;;;4972273;28;20093;-56
2022/04/25 13:26:34;;;;;;;14.15;4.97;;;14.00;97.60;;;;;;4988196;28;20134;-54
2022/04/25 13:29:01;;;;;;;15.48;3.95;;;13.60;98.90;;;;;;4987867;28;20109;-57
2022/04/25 13:31:28;;;;;;;7.40;4.00;;;13.40;99.60;;;;;;4987974;28;20085;-57